Time;durP1;ratioP1;P1;durP2;ratioP2;P2;SDS_P1;SDS_P2;PMS_P1;PMS_P2;Temp;Humidity;BMP_temperature;BMP_pressure;BME280_temperature;BME280_humidity;BME280_pressure;Samples;Min_cycle;Max_cycle;Signal;HPM_P1;HPM_P2
2023/06/05 00:01:14;;;;;;;1.00;0.50;;;19.00;57.60;;;;;;5115141;28;20420;-57
2023/06/05 00:03:43;;;;;;;0.90;0.60;;;18.90;57.60;;;;;;5115800;28;20769;-57
2023/06/05 00:06:10;;;;;;;1.10;0.60;;;18.90;57.90;;;;;;5116090;28;20428;-56
2023/06/05 00:08:37;;;;;;;1.00;0.60;;;18.90;58.30;;;;;;5115492;28;20469;-56
2023/06/05 00:11:04;;;;;;;0.82;0.50;;;18.90;58.60;;;;;;5115391;28;20415;-55
2023/06/05 00:13:31;;;;;;;1.10;0.50;;;18.90;58.40;;;;;;5115010;28;20424;-55
2023/06/05 00:15:58;;;;;;;1.80;0.70;;;19.00;58.50;;;;;;5115389;28;20416;-56
2023/06/05 00:18:26;;;;;;;1.00;0.60;;;19.00;58.70;;;;;;5115512;28;20424;-55
2023/06/05 00:20:54;;;;;;;1.13;0.60;;;19.00;58.70;;;;;;5115530;28;20847;-58
2023/06/05 00:23:21;;;;;;;0.82;0.50;;;19.00;58.70;;;;;;5114469;28;20480;-56
2023/06/05 00:25:48;;;;;;;0.70;0.50;;;18.90;58.80;;;;;;5115687;28;20416;-55
2023/06/05 00:28:15;;;;;;;0.80;0.50;;;18.90;59.50;;;;;;5115095;28;20450;-56
2023/06/05 00:30:42;;;;;;;1.00;0.50;;;18.90;59.20;;;;;;5115261;28;20432;-54
2023/06/05 00:33:09;;;;;;;0.90;0.50;;;18.90;58.80;;;;;;5115465;28;20863;-55
2023/06/05 00:35:36;;;;;;;0.75;0.50;;;18.90;57.90;;;;;;5115613;28;20420;-56
2023/06/05 00:38:06;;;;;;;0.80;0.50;;;18.90;58.00;;;;;;5115501;28;20481;-58
2023/06/05 00:40:33;;;;;;;0.90;0.50;;;19.00;58.50;;;;;;5116344;28;20770;-55
2023/06/05 00:43:00;;;;;;;1.17;0.50;;;19.00;58.60;;;;;;5118709;28;20453;-56
2023/06/05 00:45:27;;;;;;;0.88;0.50;;;19.00;58.70;;;;;;5119587;28;20916;-55
2023/06/05 00:47:55;;;;;;;1.00;0.60;;;18.90;58.50;;;;;;5119179;28;20832;-57
2023/06/05 00:50:22;;;;;;;0.90;0.60;;;18.90;59.00;;;;;;5118394;28;20423;-57
2023/06/05 00:52:50;;;;;;;1.60;0.60;;;18.70;59.10;;;;;;5117671;28;20640;-56
2023/06/05 00:55:19;;;;;;;0.70;0.50;;;18.60;59.50;;;;;;5119478;28;20440;-57
2023/06/05 00:57:46;;;;;;;0.90;0.60;;;18.50;60.50;;;;;;5119236;28;20428;-54
2023/06/05 01:00:15;;;;;;;1.47;0.60;;;18.40;61.00;;;;;;5119254;28;20832;-54
2023/06/05 01:02:43;;;;;;;0.70;0.50;;;18.40;62.60;;;;;;5118608;28;20839;-57
2023/06/05 01:05:10;;;;;;;1.20;0.50;;;18.40;62.60;;;;;;5119084;28;20844;-57
2023/06/05 01:07:39;;;;;;;0.80;0.50;;;18.40;62.00;;;;;;5118643;28;20421;-57
2023/06/05 01:10:08;;;;;;;1.50;0.50;;;18.50;60.80;;;;;;5118881;28;20451;-56
2023/06/05 01:12:44;;;;;;;0.85;0.50;;;18.40;61.10;;;;;;5118601;28;20511;-56
2023/06/05 01:15:12;;;;;;;0.80;0.50;;;18.40;61.70;;;;;;5118749;28;20431;-55
2023/06/05 01:17:39;;;;;;;1.02;0.60;;;18.40;62.20;;;;;;5117958;28;20832;-54
2023/06/05 01:20:09;;;;;;;1.80;0.60;;;18.30;62.60;;;;;;5117363;28;20424;-57
2023/06/05 01:22:37;;;;;;;0.70;0.50;;;18.40;61.70;;;;;;5117284;28;20420;-56
2023/06/05 01:25:09;;;;;;;0.90;0.50;;;18.40;62.00;;;;;;5118021;28;20871;-55
2023/06/05 01:27:42;;;;;;;1.20;0.50;;;18.30;63.20;;;;;;5118087;28;20444;-56
2023/06/05 01:30:24;;;;;;;1.33;0.60;;;18.30;63.80;;;;;;5118020;28;20708;-56
2023/06/05 01:32:56;;;;;;;0.80;0.50;;;18.30;64.00;;;;;;5117373;28;20428;-56
2023/06/05 01:35:27;;;;;;;0.70;0.50;;;18.30;63.40;;;;;;5117839;28;20420;-56
2023/06/05 01:37:57;;;;;;;1.88;0.60;;;18.30;63.40;;;;;;5118167;28;20428;-56
2023/06/05 01:40:26;;;;;;;0.90;0.50;;;18.30;63.80;;;;;;5118222;28;20412;-56
2023/06/05 01:42:55;;;;;;;0.70;0.50;;;18.30;64.80;;;;;;5118532;28;20416;-56
2023/06/05 01:45:23;;;;;;;0.90;0.50;;;18.20;65.40;;;;;;5118444;28;20514;-56
2023/06/05 01:47:51;;;;;;;0.80;0.50;;;18.10;64.60;;;;;;5117992;28;20477;-56
2023/06/05 01:50:19;;;;;;;0.80;0.50;;;18.10;65.20;;;;;;5118407;28;20420;-57
2023/06/05 01:52:47;;;;;;;0.90;0.60;;;17.90;65.90;;;;;;5117447;28;20481;-56
2023/06/05 01:55:18;;;;;;;0.90;0.50;;;17.70;67.50;;;;;;5118240;28;20456;-55
2023/06/05 01:57:46;;;;;;;0.70;0.50;;;17.60;68.10;;;;;;5118152;28;20454;-57
2023/06/05 02:00:15;;;;;;;0.80;0.50;;;17.50;69.20;;;;;;5118226;28;20424;-57
2023/06/05 02:02:43;;;;;;;0.75;0.50;;;17.40;69.00;;;;;;5117888;28;20522;-57
2023/06/05 02:05:11;;;;;;;0.80;0.60;;;17.30;70.10;;;;;;5117422;28;20732;-57
2023/06/05 02:07:39;;;;;;;0.80;0.50;;;17.30;71.40;;;;;;5117703;28;20424;-56
2023/06/05 02:10:08;;;;;;;1.30;0.50;;;17.30;71.50;;;;;;5117524;28;20415;-56
2023/06/05 02:12:37;;;;;;;0.80;0.50;;;17.40;71.80;;;;;;5118317;28;20780;-55
2023/06/05 02:15:06;;;;;;;1.00;0.47;;;17.30;71.60;;;;;;5117674;28;20428;-55
2023/06/05 02:17:34;;;;;;;0.80;0.50;;;17.30;71.90;;;;;;5117184;28;20431;-55
2023/06/05 02:20:01;;;;;;;1.80;0.60;;;17.20;72.40;;;;;;5117505;28;20428;-58
2023/06/05 02:22:28;;;;;;;0.90;0.50;;;17.10;73.00;;;;;;5117196;28;20419;-55
2023/06/05 02:24:55;;;;;;;0.70;0.40;;;17.10;73.60;;;;;;5116591;28;20424;-56
2023/06/05 02:27:24;;;;;;;0.90;0.50;;;17.10;74.10;;;;;;5118022;28;20811;-56
2023/06/05 02:29:51;;;;;;;1.20;0.50;;;17.10;74.40;;;;;;5116817;28;20428;-57
2023/06/05 02:32:19;;;;;;;1.60;0.50;;;17.00;74.90;;;;;;5117594;28;20467;-54
2023/06/05 02:34:47;;;;;;;2.13;0.50;;;16.90;75.40;;;;;;5116597;28;20523;-57
2023/06/05 02:37:15;;;;;;;0.70;0.50;;;16.90;75.80;;;;;;5117554;28;20463;-58
2023/06/05 02:39:41;;;;;;;0.77;0.50;;;16.90;76.30;;;;;;5117746;28;21441;-56
2023/06/05 02:42:09;;;;;;;1.10;0.50;;;16.90;77.10;;;;;;5117074;28;20428;-56
2023/06/05 02:44:36;;;;;;;0.70;0.50;;;16.90;76.90;;;;;;5117354;28;20427;-56
2023/06/05 02:47:03;;;;;;;0.80;0.50;;;17.00;77.80;;;;;;5116703;28;20920;-57
2023/06/05 02:49:32;;;;;;;0.90;0.50;;;17.00;77.30;;;;;;5115419;28;20482;-55
2023/06/05 02:51:59;;;;;;;0.90;0.50;;;16.90;78.40;;;;;;5116609;28;20469;-55
2023/06/05 02:54:28;;;;;;;1.20;0.55;;;16.90;79.50;;;;;;5116956;28;20436;-56
2023/06/05 02:56:56;;;;;;;0.80;0.50;;;16.90;79.20;;;;;;5116567;28;20867;-58
2023/06/05 02:59:24;;;;;;;1.30;0.60;;;16.80;80.40;;;;;;5116373;28;20739;-58
2023/06/05 03:01:52;;;;;;;1.70;0.50;;;16.70;81.50;;;;;;5116067;28;20820;-57
2023/06/05 03:04:21;;;;;;;1.33;0.50;;;16.70;81.70;;;;;;5115577;28;20438;-56
2023/06/05 03:06:50;;;;;;;1.17;0.50;;;16.60;82.10;;;;;;5116912;28;20510;-56
2023/06/05 03:09:17;;;;;;;1.90;0.60;;;16.50;82.60;;;;;;5116455;28;20428;-56
2023/06/05 03:11:44;;;;;;;0.90;0.50;;;16.50;83.40;;;;;;5116448;28;20423;-56
2023/06/05 03:14:11;;;;;;;1.00;0.50;;;16.40;84.10;;;;;;5116147;28;20432;-57
2023/06/05 03:16:41;;;;;;;0.73;0.50;;;16.30;84.80;;;;;;5114823;28;20793;-56
2023/06/05 03:19:08;;;;;;;2.50;0.50;;;16.40;85.20;;;;;;5114853;28;20491;-58
2023/06/05 03:21:36;;;;;;;1.50;0.60;;;16.50;86.10;;;;;;5114834;28;20514;-57
2023/06/05 03:24:05;;;;;;;1.50;0.55;;;16.60;85.80;;;;;;5114809;28;20443;-57
2023/06/05 03:26:33;;;;;;;1.05;0.60;;;16.60;86.80;;;;;;5115026;28;20428;-56
2023/06/05 03:29:00;;;;;;;1.15;0.60;;;16.60;86.20;;;;;;5115184;28;20478;-57
2023/06/05 03:31:27;;;;;;;0.98;0.60;;;16.70;87.60;;;;;;5115428;28;20983;-56
2023/06/05 03:33:55;;;;;;;0.90;0.60;;;16.60;88.20;;;;;;5115942;28;20436;-57
2023/06/05 03:36:22;;;;;;;0.80;0.60;;;16.50;88.60;;;;;;5115866;28;20420;-56
2023/06/05 03:38:49;;;;;;;0.75;0.60;;;16.50;89.00;;;;;;5115941;28;20467;-56
2023/06/05 03:41:18;;;;;;;1.73;0.50;;;16.40;89.80;;;;;;5116261;28;20428;-56
2023/06/05 03:43:46;;;;;;;1.17;0.70;;;16.30;90.40;;;;;;5115762;28;20488;-57
2023/06/05 03:46:18;;;;;;;1.02;0.60;;;16.30;90.80;;;;;;5115274;28;20420;-58
2023/06/05 03:48:45;;;;;;;0.90;0.60;;;16.20;91.40;;;;;;5114860;28;20423;-57
2023/06/05 03:51:12;;;;;;;0.90;0.57;;;16.10;92.30;;;;;;5114939;28;20431;-58
2023/06/05 03:53:43;;;;;;;1.20;0.70;;;16.00;93.20;;;;;;5115641;28;20515;-56
2023/06/05 03:56:11;;;;;;;1.20;0.60;;;16.10;93.60;;;;;;5113585;28;20419;-57
2023/06/05 03:58:39;;;;;;;2.67;0.80;;;16.30;93.40;;;;;;5102288;28;20615;-57
2023/06/05 04:01:06;;;;;;;1.00;0.60;;;16.40;93.20;;;;;;5115006;28;20412;-57
2023/06/05 04:03:37;;;;;;;2.20;0.70;;;16.30;93.30;;;;;;5114933;28;20428;-57
2023/06/05 04:06:04;;;;;;;0.77;0.50;;;16.20;93.70;;;;;;5115591;28;20420;-56
2023/06/05 04:08:32;;;;;;;1.30;0.60;;;16.20;94.60;;;;;;5113376;28;20514;-57
2023/06/05 04:10:59;;;;;;;0.80;0.60;;;16.20;95.00;;;;;;5105455;28;20429;-57
2023/06/05 04:13:26;;;;;;;1.10;0.70;;;16.30;95.00;;;;;;5094239;28;20738;-56
2023/06/05 04:15:55;;;;;;;1.50;0.70;;;16.30;95.50;;;;;;5109619;28;20430;-59
2023/06/05 04:18:22;;;;;;;1.00;0.60;;;16.40;96.20;;;;;;5120452;28;20424;-56
2023/06/05 04:20:49;;;;;;;2.10;0.60;;;16.40;96.70;;;;;;5119545;28;20434;-57
2023/06/05 04:23:16;;;;;;;0.90;0.60;;;16.30;97.00;;;;;;5120694;28;20481;-56
2023/06/05 04:25:48;;;;;;;2.50;0.60;;;16.20;97.70;;;;;;5121819;28;20489;-56
2023/06/05 04:28:16;;;;;;;1.00;0.60;;;16.10;97.90;;;;;;5121966;28;20502;-55
2023/06/05 04:30:45;;;;;;;0.90;0.57;;;16.00;98.50;;;;;;5121455;28;20886;-56
2023/06/05 04:33:14;;;;;;;3.50;0.63;;;16.00;99.10;;;;;;5120443;28;20463;-57
2023/06/05 04:35:40;;;;;;;2.20;0.70;;;16.10;99.80;;;;;;5120240;28;20435;-59
2023/06/05 04:38:08;;;;;;;1.20;0.60;;;16.20;99.60;;;;;;5119189;28;20432;-59
2023/06/05 04:40:35;;;;;;;2.55;0.70;;;16.10;99.80;;;;;;5120535;28;20426;-56
2023/06/05 04:43:02;;;;;;;1.63;0.70;;;16.10;99.90;;;;;;5121176;28;20717;-57
2023/06/05 04:45:30;;;;;;;1.23;0.70;;;16.20;99.90;;;;;;5119524;28;20454;-57
2023/06/05 04:47:57;;;;;;;1.63;0.60;;;16.30;99.90;;;;;;5119624;28;20484;-57
2023/06/05 04:50:28;;;;;;;1.30;0.60;;;16.30;99.90;;;;;;5119096;28;20712;-58
2023/06/05 04:52:55;;;;;;;1.10;0.70;;;16.40;99.40;;;;;;5120047;28;20866;-56
2023/06/05 04:55:22;;;;;;;1.73;0.60;;;16.50;99.30;;;;;;5120133;28;20839;-57
2023/06/05 04:57:50;;;;;;;0.98;0.60;;;16.50;99.90;;;;;;5120519;28;20428;-58
2023/06/05 05:00:18;;;;;;;1.77;0.70;;;16.60;99.40;;;;;;5121177;28;20431;-57
2023/06/05 05:02:45;;;;;;;0.80;0.60;;;16.70;99.90;;;;;;5118843;28;20892;-57
2023/06/05 05:05:13;;;;;;;1.90;0.70;;;16.70;99.70;;;;;;5120541;28;20854;-57
2023/06/05 05:07:42;;;;;;;1.00;0.60;;;16.70;99.40;;;;;;5119479;28;20420;-58
2023/06/05 05:10:10;;;;;;;1.47;0.60;;;16.60;99.40;;;;;;5119833;28;20416;-56
2023/06/05 05:12:38;;;;;;;1.10;0.60;;;16.60;99.90;;;;;;5120068;28;20427;-58
2023/06/05 05:15:06;;;;;;;0.90;0.60;;;16.30;99.90;;;;;;5120709;28;20436;-57
2023/06/05 05:17:33;;;;;;;0.82;0.60;;;16.20;99.90;;;;;;5120003;28;20430;-59
2023/06/05 05:20:00;;;;;;;1.10;0.70;;;16.30;99.90;;;;;;5120319;28;20428;-57
2023/06/05 05:22:27;;;;;;;1.10;0.70;;;16.40;99.90;;;;;;5119426;28;20416;-54
2023/06/05 05:24:56;;;;;;;1.10;0.68;;;16.40;99.90;;;;;;5119775;28;20419;-57
2023/06/05 05:27:24;;;;;;;1.27;0.60;;;16.30;99.90;;;;;;5115784;28;20439;-62
2023/06/05 05:29:53;;;;;;;1.10;0.70;;;16.40;99.90;;;;;;5116157;28;20527;-58
2023/06/05 05:32:20;;;;;;;1.08;0.68;;;16.30;99.90;;;;;;5113642;28;20424;-57
2023/06/05 05:34:50;;;;;;;0.90;0.60;;;16.20;99.90;;;;;;5115193;28;20443;-56
2023/06/05 05:37:17;;;;;;;0.90;0.60;;;16.60;99.90;;;;;;5114999;28;20449;-58
2023/06/05 05:39:44;;;;;;;0.90;0.60;;;16.70;99.90;;;;;;5114879;28;20424;-57
2023/06/05 05:42:13;;;;;;;1.10;0.60;;;16.90;99.90;;;;;;5114604;28;20446;-55
2023/06/05 05:44:42;;;;;;;2.08;0.60;;;17.00;99.40;;;;;;5114907;28;20478;-58
2023/06/05 05:47:09;;;;;;;1.37;0.60;;;17.10;99.90;;;;;;5114436;28;20424;-57
2023/06/05 05:49:36;;;;;;;0.98;0.60;;;17.20;99.90;;;;;;5113422;28;20967;-57
2023/06/05 05:52:03;;;;;;;1.30;0.63;;;17.30;99.30;;;;;;5113887;28;20768;-58
2023/06/05 05:54:30;;;;;;;1.10;0.60;;;17.50;98.60;;;;;;5115656;28;20433;-57
2023/06/05 05:56:57;;;;;;;1.27;0.60;;;17.60;98.10;;;;;;5115892;28;20481;-58
2023/06/05 05:59:25;;;;;;;0.80;0.60;;;17.60;97.20;;;;;;5113032;28;20428;-56
2023/06/05 06:01:52;;;;;;;1.20;0.70;;;17.70;97.10;;;;;;5112297;28;20486;-56
2023/06/05 06:04:19;;;;;;;2.40;0.70;;;17.70;96.70;;;;;;5112374;28;20424;-58
2023/06/05 06:06:52;;;;;;;1.77;0.77;;;17.60;96.40;;;;;;5113754;28;20443;-57
2023/06/05 06:09:19;;;;;;;1.20;0.70;;;17.50;96.50;;;;;;5113488;28;20770;-57
2023/06/05 06:11:47;;;;;;;1.60;0.60;;;17.50;97.40;;;;;;5112803;28;20443;-56
2023/06/05 06:14:14;;;;;;;1.00;0.68;;;17.40;97.00;;;;;;5114257;28;20420;-53
2023/06/05 06:16:43;;;;;;;1.90;0.60;;;17.30;97.40;;;;;;5101522;28;20717;-55
2023/06/05 06:19:13;;;;;;;1.60;0.70;;;17.40;98.20;;;;;;5098490;28;20450;-56
2023/06/05 06:21:41;;;;;;;0.90;0.60;;;17.60;98.30;;;;;;5101199;28;20434;-57
2023/06/05 06:24:08;;;;;;;1.90;0.60;;;17.80;98.10;;;;;;5096962;28;20525;-57
2023/06/05 06:26:36;;;;;;;1.90;0.60;;;17.90;96.60;;;;;;5091368;28;20482;-53
2023/06/05 06:29:04;;;;;;;0.90;0.65;;;18.00;95.70;;;;;;5090842;28;20758;-53
2023/06/05 06:31:31;;;;;;;1.88;0.80;;;17.90;95.10;;;;;;5090972;28;20525;-53
2023/06/05 06:34:02;;;;;;;1.00;0.70;;;18.00;94.40;;;;;;5090464;28;20756;-53
2023/06/05 06:36:29;;;;;;;1.00;0.70;;;18.10;94.30;;;;;;5095282;28;20729;-54
2023/06/05 06:38:56;;;;;;;2.80;0.70;;;18.30;93.50;;;;;;5092181;28;20427;-53
2023/06/05 06:41:23;;;;;;;1.43;0.70;;;18.40;93.40;;;;;;5093957;28;20458;-55
2023/06/05 06:43:50;;;;;;;1.08;0.70;;;18.60;93.50;;;;;;5105765;28;20423;-54
2023/06/05 06:46:17;;;;;;;1.70;0.70;;;18.70;93.00;;;;;;5114148;28;20469;-55
2023/06/05 06:48:44;;;;;;;1.20;0.63;;;18.70;92.50;;;;;;5113402;28;20848;-55
2023/06/05 06:51:13;;;;;;;1.40;0.60;;;18.70;92.40;;;;;;5113772;28;20427;-55
2023/06/05 06:53:41;;;;;;;1.30;0.80;;;18.60;92.70;;;;;;5109216;28;20449;-51
2023/06/05 06:56:08;;;;;;;1.10;0.68;;;18.70;92.70;;;;;;5091276;28;20822;-53
2023/06/05 06:58:36;;;;;;;1.00;0.70;;;18.80;92.60;;;;;;5090090;28;20440;-55
2023/06/05 07:01:03;;;;;;;1.37;0.60;;;19.00;92.40;;;;;;5089760;28;20476;-53
2023/06/05 07:03:31;;;;;;;3.10;0.70;;;19.10;91.90;;;;;;5100968;28;20441;-53
2023/06/05 07:05:58;;;;;;;1.58;0.80;;;19.20;92.10;;;;;;5088678;28;20424;-53
2023/06/05 07:08:26;;;;;;;1.63;0.80;;;19.20;91.30;;;;;;5089920;28;20440;-53
2023/06/05 07:10:55;;;;;;;1.10;0.80;;;19.20;91.60;;;;;;5092337;28;20425;-53
2023/06/05 07:13:22;;;;;;;1.20;0.80;;;19.20;91.10;;;;;;5104211;28;20808;-55
2023/06/05 07:15:50;;;;;;;1.00;0.70;;;19.30;91.00;;;;;;5097283;28;20491;-55
2023/06/05 07:18:19;;;;;;;1.20;0.70;;;19.40;91.10;;;;;;5090992;28;20516;-53
2023/06/05 07:20:47;;;;;;;1.10;0.77;;;19.50;90.70;;;;;;5111025;28;20424;-57
2023/06/05 07:23:17;;;;;;;1.98;0.70;;;19.50;90.50;;;;;;5113725;28;20432;-54
2023/06/05 07:25:45;;;;;;;1.00;0.68;;;19.50;90.50;;;;;;5112302;28;20736;-53
2023/06/05 07:28:12;;;;;;;1.23;0.80;;;19.70;90.80;;;;;;5111791;28;20423;-55
2023/06/05 07:30:43;;;;;;;0.93;0.70;;;19.80;90.00;;;;;;5113179;28;20463;-54
2023/06/05 07:33:10;;;;;;;1.95;0.75;;;19.80;90.20;;;;;;5111133;28;20442;-54
2023/06/05 07:35:37;;;;;;;1.20;0.70;;;19.80;90.60;;;;;;5112440;28;20515;-55
2023/06/05 07:38:04;;;;;;;1.73;0.80;;;19.80;90.90;;;;;;5099991;28;20434;-51
2023/06/05 07:40:32;;;;;;;3.30;0.80;;;19.90;90.90;;;;;;5093034;28;20468;-54
2023/06/05 07:43:00;;;;;;;1.10;0.80;;;20.10;90.70;;;;;;5092447;28;20474;-54
2023/06/05 07:45:27;;;;;;;1.77;0.90;;;20.30;91.10;;;;;;5089842;28;20433;-55
2023/06/05 07:47:54;;;;;;;1.85;0.90;;;20.30;90.90;;;;;;5093562;28;20436;-56
2023/06/05 07:50:22;;;;;;;2.47;0.90;;;20.30;91.50;;;;;;5104111;28;20921;-55
2023/06/05 07:52:49;;;;;;;1.60;0.82;;;20.20;91.20;;;;;;5112382;28;20518;-54
2023/06/05 07:55:17;;;;;;;3.40;0.88;;;20.10;91.60;;;;;;5100300;28;20511;-55
2023/06/05 07:57:44;;;;;;;1.00;0.80;;;20.10;91.80;;;;;;5090681;28;20429;-54
2023/06/05 08:00:13;;;;;;;1.45;0.80;;;20.20;91.60;;;;;;5097859;28;20926;-56
2023/06/05 08:02:40;;;;;;;1.80;0.80;;;20.40;91.60;;;;;;5089770;28;20718;-56
2023/06/05 08:05:08;;;;;;;1.40;0.80;;;20.60;91.40;;;;;;5090182;28;20434;-55
2023/06/05 08:07:35;;;;;;;2.70;0.80;;;20.80;91.10;;;;;;5103818;28;20426;-55
2023/06/05 08:10:02;;;;;;;2.50;0.90;;;20.90;91.00;;;;;;5089906;28;20463;-52
2023/06/05 08:12:30;;;;;;;1.50;0.80;;;21.10;91.50;;;;;;5089923;28;20426;-54
2023/06/05 08:14:56;;;;;;;2.30;0.90;;;21.20;91.70;;;;;;5089419;28;21040;-55
2023/06/05 08:17:25;;;;;;;1.60;1.10;;;21.10;91.70;;;;;;5089357;28;20888;-56
2023/06/05 08:19:52;;;;;;;3.03;1.20;;;21.20;94.00;;;;;;5087732;28;20491;-56
2023/06/05 08:22:19;;;;;;;2.72;0.90;;;21.10;95.10;;;;;;5087559;28;20424;-56
2023/06/05 08:24:48;;;;;;;1.65;1.10;;;21.10;95.90;;;;;;5089081;28;20532;-51
2023/06/05 08:27:15;;;;;;;1.20;0.90;;;21.30;94.90;;;;;;5090091;28;20417;-58
2023/06/05 08:29:42;;;;;;;3.28;0.90;;;21.50;94.70;;;;;;5089144;28;20425;-55
2023/06/05 08:32:09;;;;;;;1.85;1.00;;;21.70;94.40;;;;;;5100241;28;20485;-56
2023/06/05 08:34:37;;;;;;;2.00;1.00;;;21.80;94.30;;;;;;5094724;28;20802;-57
2023/06/05 08:37:05;;;;;;;1.30;1.00;;;21.90;93.60;;;;;;5090113;28;20434;-56
2023/06/05 08:39:33;;;;;;;1.30;1.00;;;22.10;93.80;;;;;;5099044;28;20512;-56
2023/06/05 08:42:02;;;;;;;2.10;1.13;;;22.20;94.00;;;;;;5108995;28;20432;-57
2023/06/05 08:44:30;;;;;;;1.75;1.00;;;22.20;93.30;;;;;;5112728;28;20835;-57
2023/06/05 08:47:02;;;;;;;1.42;1.00;;;22.10;93.40;;;;;;5109457;28;20427;-56
2023/06/05 08:49:32;;;;;;;2.30;1.10;;;22.20;93.40;;;;;;5090274;28;20783;-56
2023/06/05 08:52:03;;;;;;;1.70;1.10;;;22.40;94.00;;;;;;5091681;28;20424;-55
2023/06/05 08:54:37;;;;;;;2.50;1.10;;;22.60;93.70;;;;;;5101974;28;20499;-52
2023/06/05 08:57:06;;;;;;;1.65;1.00;;;22.70;93.50;;;;;;5102127;28;20441;-56
2023/06/05 08:59:33;;;;;;;1.88;1.10;;;22.90;93.60;;;;;;5089766;28;20433;-55
2023/06/05 09:02:01;;;;;;;2.70;1.10;;;23.00;93.20;;;;;;5092248;28;20430;-55
2023/06/05 09:04:30;;;;;;;1.90;1.00;;;23.20;92.30;;;;;;5110605;28;20419;-55
2023/06/05 09:06:57;;;;;;;1.20;1.00;;;23.20;93.20;;;;;;5092786;28;20431;-53
2023/06/05 09:09:26;;;;;;;1.67;1.10;;;23.10;93.20;;;;;;5092504;28;20495;-56
2023/06/05 09:12:02;;;;;;;3.40;1.00;;;23.10;94.00;;;;;;5093606;28;20708;-56
2023/06/05 09:14:30;;;;;;;1.80;1.30;;;23.20;93.90;;;;;;5091302;28;20475;-50
2023/06/05 09:16:58;;;;;;;2.10;1.10;;;23.30;93.80;;;;;;5090045;28;20433;-57
2023/06/05 09:19:27;;;;;;;1.50;1.20;;;23.40;93.50;;;;;;5089809;28;20434;-54
2023/06/05 09:21:55;;;;;;;1.60;1.25;;;23.30;93.60;;;;;;5092605;28;20440;-53
2023/06/05 09:24:26;;;;;;;1.20;1.00;;;23.30;93.30;;;;;;5094425;28;20821;-52
2023/06/05 09:26:56;;;;;;;1.30;1.00;;;23.40;92.90;;;;;;5092972;28;20441;-56
2023/06/05 09:29:25;;;;;;;1.80;1.00;;;23.40;92.60;;;;;;5090763;28;20444;-56
2023/06/05 09:31:54;;;;;;;1.60;1.00;;;23.40;93.20;;;;;;5096275;28;20441;-56
2023/06/05 09:34:22;;;;;;;4.55;2.60;;;23.60;92.40;;;;;;5102378;28;20618;-56
2023/06/05 09:36:49;;;;;;;2.10;1.10;;;23.70;92.80;;;;;;5104416;28;21237;-58
2023/06/05 09:39:17;;;;;;;2.50;1.10;;;23.90;92.80;;;;;;5103699;28;20437;-56
2023/06/05 09:41:47;;;;;;;2.88;1.20;;;23.80;92.20;;;;;;5097659;28;20883;-53
2023/06/05 09:44:14;;;;;;;1.80;1.10;;;23.90;92.10;;;;;;5098703;28;20438;-55
2023/06/05 09:46:55;;;;;;;2.37;1.07;;;24.20;91.80;;;;;;5095708;28;20520;-61
2023/06/05 09:49:22;;;;;;;2.00;1.10;;;24.50;91.70;;;;;;5094688;28;20448;-62
2023/06/05 09:51:49;;;;;;;1.30;1.15;;;24.60;91.20;;;;;;5090655;28;20831;-61
2023/06/05 09:54:17;;;;;;;1.40;1.20;;;24.60;91.50;;;;;;5089426;28;20425;-62
2023/06/05 09:56:49;;;;;;;1.20;1.00;;;24.80;91.50;;;;;;5094426;28;20487;-61
2023/06/05 09:59:22;;;;;;;1.20;0.90;;;24.80;90.90;;;;;;5096359;28;20523;-60
2023/06/05 10:01:52;;;;;;;1.60;1.10;;;24.70;90.40;;;;;;5091756;28;20441;-61
2023/06/05 10:04:22;;;;;;;5.10;1.27;;;24.90;91.20;;;;;;5091729;28;20780;-59
2023/06/05 10:06:51;;;;;;;1.90;1.20;;;25.20;90.50;;;;;;5092153;28;20438;-61
2023/06/05 10:09:19;;;;;;;1.50;1.10;;;25.30;90.20;;;;;;5092993;28;20429;-61
2023/06/05 10:11:50;;;;;;;1.65;1.17;;;25.50;89.20;;;;;;5089906;28;20427;-62
2023/06/05 10:14:18;;;;;;;2.67;1.20;;;25.50;87.60;;;;;;5105783;28;20503;-61
2023/06/05 10:16:50;;;;;;;1.40;1.10;;;25.70;85.80;;;;;;5108438;28;20962;-62
2023/06/05 10:19:19;;;;;;;1.30;1.07;;;25.80;84.60;;;;;;5106711;28;20652;-61
2023/06/05 10:21:48;;;;;;;2.60;1.10;;;25.60;82.70;;;;;;5088701;28;20425;-60
2023/06/05 10:24:19;;;;;;;1.50;1.20;;;25.50;82.70;;;;;;5086490;28;20520;-60
2023/06/05 10:27:38;;;;;;;2.20;1.08;;;25.80;80.70;;;;;;5088549;28;20520;-61
2023/06/05 10:30:52;;;;;;;2.03;1.10;;;26.00;78.20;;;;;;5102681;28;20423;-61
2023/06/05 10:33:36;;;;;;;1.40;1.20;;;25.80;75.70;;;;;;5105129;28;20436;-61
2023/06/05 10:36:12;;;;;;;1.10;1.00;;;25.50;74.30;;;;;;5089114;28;20479;-61
2023/06/05 10:38:41;;;;;;;1.40;0.80;;;25.80;72.30;;;;;;5092211;28;20414;-60
2023/06/05 10:41:08;;;;;;;1.20;0.90;;;26.00;71.00;;;;;;5093736;28;20497;-62
2023/06/05 10:43:47;;;;;;;1.30;0.80;;;26.50;69.70;;;;;;5094600;28;20498;-61
2023/06/05 10:46:31;;;;;;;1.10;0.90;;;27.10;66.40;;;;;;5092591;28;20421;-61
2023/06/05 10:49:14;;;;;;;1.35;0.80;;;27.70;63.10;;;;;;5091735;28;20432;-60
2023/06/05 10:51:44;;;;;;;1.50;0.90;;;28.10;60.90;;;;;;5095990;28;20457;-58
2023/06/05 10:54:15;;;;;;;1.45;0.90;;;28.10;59.00;;;;;;5088789;28;20454;-59
2023/06/05 10:56:59;;;;;;;1.15;0.80;;;28.20;58.30;;;;;;5093953;28;20479;-58
2023/06/05 10:59:29;;;;;;;1.25;0.80;;;28.30;57.40;;;;;;5110344;28;20789;-60
2023/06/05 11:02:27;;;;;;;1.52;0.90;;;27.80;56.70;;;;;;5095423;28;20430;-59
2023/06/05 11:05:11;;;;;;;1.48;0.90;;;27.40;55.80;;;;;;5091780;28;20486;-58
2023/06/05 11:07:42;;;;;;;0.95;0.80;;;27.20;55.50;;;;;;5098265;28;20416;-62
2023/06/05 11:10:15;;;;;;;1.00;0.80;;;26.50;56.50;;;;;;5098460;28;20502;-59
2023/06/05 11:13:07;;;;;;;1.30;0.90;;;26.50;57.40;;;;;;5090281;28;20438;-58
2023/06/05 11:15:46;;;;;;;1.10;0.80;;;27.00;55.90;;;;;;5095397;28;20430;-58
2023/06/05 11:18:33;;;;;;;1.05;0.90;;;27.40;55.10;;;;;;5092506;28;20440;-59
2023/06/05 11:21:02;;;;;;;1.13;0.80;;;27.80;54.30;;;;;;5088783;28;20439;-60
2023/06/05 11:23:29;;;;;;;1.30;0.80;;;28.10;54.60;;;;;;5090707;28;20524;-59
2023/06/05 11:25:58;;;;;;;2.00;1.00;;;28.40;54.40;;;;;;5091130;28;20591;-59
2023/06/05 11:28:45;;;;;;;1.53;0.80;;;28.90;52.60;;;;;;5100861;28;20523;-60
2023/06/05 11:31:13;;;;;;;1.70;0.90;;;29.00;50.20;;;;;;5097121;28;20734;-60
2023/06/05 11:33:41;;;;;;;1.00;0.80;;;29.10;50.60;;;;;;5110738;28;20518;-60
2023/06/05 11:36:08;;;;;;;1.10;0.85;;;29.50;49.50;;;;;;5111808;28;20882;-60
2023/06/05 11:38:36;;;;;;;1.08;0.80;;;29.70;48.70;;;;;;5110650;28;20427;-61
2023/06/05 11:41:08;;;;;;;1.20;0.80;;;29.40;48.20;;;;;;5110327;28;20519;-59
2023/06/05 11:43:43;;;;;;;1.10;0.90;;;28.80;48.20;;;;;;5109343;28;20506;-61
2023/06/05 11:46:11;;;;;;;1.40;0.70;;;28.30;49.40;;;;;;5111541;28;20426;-60
2023/06/05 11:48:45;;;;;;;1.02;0.80;;;28.40;49.20;;;;;;5110477;28;20920;-60
2023/06/05 11:51:13;;;;;;;0.90;0.70;;;28.60;48.50;;;;;;5102263;28;20432;-60
2023/06/05 11:53:47;;;;;;;1.00;0.80;;;28.90;48.90;;;;;;5113188;28;20424;-60
2023/06/05 11:56:16;;;;;;;1.10;0.80;;;29.30;47.80;;;;;;5112532;28;20416;-60
2023/06/05 11:58:44;;;;;;;1.55;0.90;;;29.50;47.00;;;;;;5091876;28;20425;-59
2023/06/05 12:01:14;;;;;;;1.10;0.80;;;29.90;46.80;;;;;;5087994;28;20434;-59
2023/06/05 12:03:43;;;;;;;1.10;0.80;;;29.70;45.70;;;;;;5088820;28;20427;-59
2023/06/05 12:06:13;;;;;;;1.00;0.75;;;29.90;46.00;;;;;;5091192;28;20584;-59
2023/06/05 12:08:40;;;;;;;0.90;0.70;;;29.90;46.00;;;;;;5106624;28;20408;-59
2023/06/05 12:11:22;;;;;;;1.00;0.80;;;29.90;46.30;;;;;;5105082;28;20420;-59
2023/06/05 12:13:50;;;;;;;1.10;0.80;;;29.60;44.70;;;;;;5090446;28;20527;-60
2023/06/05 12:16:18;;;;;;;1.08;0.70;;;29.70;44.70;;;;;;5109941;28;20830;-59
2023/06/05 12:18:47;;;;;;;1.63;0.70;;;29.60;44.40;;;;;;5108501;28;20750;-59
2023/06/05 12:21:23;;;;;;;1.40;0.90;;;29.70;43.60;;;;;;5100577;28;20522;-59
2023/06/05 12:23:50;;;;;;;1.40;0.90;;;29.70;44.20;;;;;;5091798;28;20454;-59
2023/06/05 12:26:18;;;;;;;1.20;0.80;;;29.50;44.30;;;;;;5088647;28;20426;-59
2023/06/05 12:28:46;;;;;;;1.20;0.75;;;29.50;44.20;;;;;;5089452;28;20425;-59
2023/06/05 12:31:35;;;;;;;3.08;0.70;;;29.60;42.60;;;;;;5087552;28;20457;-59
2023/06/05 12:34:03;;;;;;;1.30;0.80;;;29.50;43.90;;;;;;5087904;28;20425;-59
2023/06/05 12:36:32;;;;;;;1.00;0.80;;;29.60;43.60;;;;;;5091574;28;20421;-58
2023/06/05 12:39:11;;;;;;;1.60;0.80;;;29.80;42.60;;;;;;5093637;28;20582;-59
2023/06/05 12:41:38;;;;;;;1.13;0.80;;;29.90;42.20;;;;;;5092410;28;20441;-59
2023/06/05 12:44:06;;;;;;;1.10;0.80;;;30.20;41.60;;;;;;5095187;28;20424;-59
2023/06/05 12:46:33;;;;;;;0.90;0.80;;;30.00;41.00;;;;;;5095756;28;20443;-59
2023/06/05 12:49:00;;;;;;;1.40;0.80;;;30.30;41.00;;;;;;5095047;28;20927;-58
2023/06/05 12:51:28;;;;;;;1.00;0.70;;;30.40;40.20;;;;;;5094800;28;20429;-59
2023/06/05 12:53:57;;;;;;;1.33;0.80;;;30.70;40.00;;;;;;5095211;28;20425;-59
2023/06/05 12:56:24;;;;;;;1.00;0.80;;;30.80;40.50;;;;;;5095750;28;20471;-60
2023/06/05 12:58:54;;;;;;;1.00;0.80;;;31.00;39.70;;;;;;5095673;28;20433;-59